Kingsbrae Garden Challenge St. Andrews - Results

Date Sunday, July 10, 2016 Location Saint Andrews, NB, CA
                                         Challenge St. Andrews

            St. Andrews, NB July 10, 2016 Weather: Overcast 16C

                                     

                          Long Distance Triathlon

                                     

              Timing & Results by Atlantic Chip Sport Timing

                                     

--------------------------------------------------------------------------------     1900 Meter                        91 Km                              21 Km

                                                                    Div           ------SWIM-------   ----T1----  ------BIKE------     -----T2----  -------RUN------

Place   Bib  Time   Name                  City              Pr Co   Total  Div     Pl   Time   /100   Pl    Time  Pl Time    Km/Hr     Pl    Time   Pl Time      /Km

------  --- ------- --------------------- ----------------- -- --   ----- ------  -----------------   ----------  ----------------     -----------  ----------------

    1   249 4:20:22 Lee Roy               Bathurst          NB CA   1/13   M3034   28   30:07  1:36    2    3:53    2 2:22:53 38.2     20    1:12    2 1:22:19  3:56 

    2    72 4:21:27 Corey Deveaux         Sydney River      NS CA   2/13   M3034   19   29:30  1:34    8    4:22    5 2:25:17 37.6     13    1:05    1 1:21:14  3:53 

    3     2 4:21:57 Troy Allaby           Upham             NB CA   1/33   M4549   23   29:45  1:34    7    4:17    1 2:22:08 38.4      9    1:01    3 1:24:48  4:03 

    4   155 4:31:28 Allan MacKenzie       Sydney River      NS CA   3/13   M3034   20   29:32  1:34   10    4:27    9 2:30:21 36.3      4    0:47    6 1:26:23  4:07 

    5   151 4:31:42 Simon Lutz            London            ON CA   4/13   M3034   22   29:39  1:34   34    5:21    7 2:28:13 36.8     21    1:12    7 1:27:19  4:10 

    6   350 4:32:44 Mike Davis            Fredericton       NB CA   2/33   M4549   29   30:09  1:36    3    4:03    6 2:25:52 37.4     38    1:30   14 1:31:12  4:21 

    7   286 4:34:30 Julian Underwood      Woodstock         VT US   1/40   M4044    7   28:47  1:31   11    4:35   10 2:32:33 35.8     18    1:10    8 1:27:26  4:10 

    8   301 4:35:42 Devin Wittig          Yellowknife       NT CA   1/3    M2024   15   29:07  1:32    1    3:38    3 2:23:27 38.1      2    0:41   36 1:38:51  4:43 

    9    35 4:35:53 Kyle Burnell          South Berwick     ME US   5/13   M3034    3   26:14  1:23    4    4:08    8 2:29:55 36.4      6    0:56   25 1:34:41  4:31 

   10   186 4:36:23 Chris Milburn         Sydney            NS CA   3/33   M4549   16   29:13  1:33   30    5:14   11 2:32:47 35.7      5    0:55    9 1:28:16  4:13 

   11    34 4:41:01 Andreas Burger        Mabou             NS CA   6/13   M3034   55   32:04  1:42   59    5:54   12 2:33:12 35.6     31    1:19   10 1:28:34  4:14 

   12   334 4:41:44 Nicholas Phillips     Windsor Junction  NS CA   2/40   M4044   51   31:54  1:41   42    5:38   14 2:34:12 35.4      3    0:46   11 1:29:17  4:16 

   13   267 4:44:25 Yanick Soucy          Dieppe            NB CA   3/40   M4044   68   32:55  1:44   21    5:00   13 2:33:22 35.6     17    1:10   15 1:32:00  4:23 

   14   101 4:44:30 Stephen Handel        Dieppe            NB CA   4/40   M4044   52   31:55  1:41    6    4:16   18 2:36:47 34.8      1    0:41   13 1:30:53  4:20 

   15   256 4:44:46 David Savard          Jonquiere         QC CA   1/12   M3539   30   30:10  1:36    5    4:10   15 2:35:39 35.1     12    1:05   20 1:33:44  4:28 

   16    20 4:48:59 Seth Bitting          Rossland          BC CA   5/40   M4044   26   30:05  1:35   14    4:40   16 2:36:13 35.0     56    1:49   30 1:36:14  4:35 

   17   227 4:49:24 Satish Punna          Moncton           NB CA   4/33   M4549   11   29:01  1:32   57    5:53   23 2:38:47 34.4     42    1:33   21 1:34:12  4:30 

   18    80 4:49:39 David Field           Barry's Bay       ON CA   1/7    M6064  201   40:00  2:07  112    6:58    4 2:24:01 37.9     40    1:31   33 1:37:11  4:38 

   19   354 4:50:47 Ian Fraser            Ottawa            ON CA   1/21   M5054   35   30:40  1:37   38    5:30   20 2:37:43 34.6    103    2:24   24 1:34:32  4:31 

   20   157 4:50:57 Mike MacKinnon        Miscouche         PE CA   6/40   M4044   77   33:26  1:46   52    5:47   34 2:43:03 33.5    106    2:28    5 1:26:14  4:07 

   21   149 4:51:31 Heather Low           Ottawa            ON CA   1/18   F3034   25   29:51  1:35   12    4:36   26 2:40:46 34.0     73    2:04   22 1:34:15  4:30 

   22   203 4:52:09 Shawn Noftall         New Glasgow       NS CA   5/33   M4549  109   34:59  1:51   22    5:03   19 2:37:37 34.6     19    1:11   18 1:33:21  4:27 

   23   295 4:53:35 Matt Wheaton          Sackville         NB CA   1/6    M2529   18   29:24  1:33   26    5:10   21 2:37:48 34.6     35    1:24   39 1:39:51  4:46 

   24   276 4:53:43 Jean-Mathieu Tardif   Charny            QC CA   7/13   M3034   46   31:44  1:41   32    5:16   22 2:38:46 34.4     11    1:05   32 1:36:55  4:37 

   25   224 4:55:39 John Power            Thunder Bay       ON CA   2/12   M3539  113   35:11  1:52   80    6:27   38 2:44:30 33.2    195    4:03    4 1:25:30  4:05 

   26     5 4:56:50 Marc Aucoin           Bathurst          NB CA   8/13   M3034   27   30:07  1:36   51    5:47   36 2:43:43 33.4     41    1:31   27 1:35:44  4:34 

   27   250 4:57:35 Luis Rubio            Saint John        NB CA   2/21   M5054   87   33:49  1:47   19    4:50   27 2:40:57 33.9     69    2:01   28 1:36:01  4:35 

   28    86 4:58:26 Marc Gallant          Fredericton       NB CA   7/40   M4044   90   33:58  1:48   53    5:48   40 2:45:32 33.0    114    2:33   12 1:30:38  4:19 

   29    48 4:58:48 Scott Clark           Summerside        PE CA   3/21   M5054   50   31:53  1:41  111    6:58   35 2:43:18 33.4    174    3:30   17 1:33:12  4:27 

   30   294 4:59:00 Ian Waugh             Ottawa            ON CA   8/40   M4044  123   35:45  1:53  118    7:05   25 2:40:12 34.1    113    2:33   19 1:33:27  4:27 

   31   214 5:00:37 Darryl Parry          Torbay            NL CA   4/21   M5054   59   32:15  1:42  130    7:17   17 2:36:30 34.9     72    2:02   53 1:42:35  4:54 

   32   121 5:00:45 Matt Keirstead        Halifax           NS CA   9/13   M3034   58   32:14  1:42   20    4:54   30 2:41:24 33.8     10    1:03   49 1:41:13  4:50 

   33   124 5:00:49 Maggie Kelley         Quispamsis        NB CA   1/11   F3539   39   31:04  1:39   64    6:01   33 2:42:27 33.6     16    1:09   44 1:40:09  4:47 

   34   225 5:02:01 Claude Pratte         Le Bic            QC CA   5/21   M5054    9   28:59  1:32   48    5:44   44 2:46:16 32.8     50    1:39   38 1:39:25  4:45 

   35   264 5:03:27 Jamey Smith           Saint Andrews     NB CA   6/21   M5054  106   34:44  1:50   41    5:38   29 2:41:23 33.8     27    1:17   46 1:40:27  4:47 

   36   257 5:04:01 Michel Savoie         Balmoral          NB CA   1/17   M5559   37   30:46  1:38   73    6:17   37 2:44:03 33.3    107    2:29   47 1:40:27  4:47 

   37   190 5:04:49 Trevor Morrison       Lower Coverdale   NB CA   2/3    M2024   34   30:35  1:37   13    4:40   24 2:39:55 34.1     28    1:17   80 1:48:23  5:10 

   38   216 5:05:22 Elizabeth Pellerin    Drummondville     QC CA   1/4    F2529   14   29:07  1:32   16    4:43   72 2:54:18 31.3     43    1:33   26 1:35:43  4:34 

   39    36 5:06:18 Earle Burrow          Grand Bay         NB CA   7/21   M5054   69   32:58  1:45   50    5:45   43 2:46:11 32.9     30    1:18   43 1:40:08  4:47 

   40    92 5:07:50 Martin Gillen         Halifax           NS CA   9/40   M4044  118   35:29  1:53   17    4:44   47 2:46:32 32.8     23    1:15   40 1:39:51  4:46 

   41    45 5:08:14 Kim Chretien          Ottawa            ON CA   2/4    F2529    4   26:35  1:24   40    5:37   45 2:46:18 32.8     53    1:43   75 1:48:03  5:09 

   42    97 5:09:02 David Goodey          Greenwood         NS CA  10/40   M4044  115   35:12  1:52   78    6:25   42 2:46:07 32.9     71    2:02   37 1:39:17  4:44 

   43   353 5:09:43 Anne Wilkinson        Falmouth          ME US   1/25   F4549   13   29:07  1:32   66    6:09   49 2:47:52 32.5     48    1:36   59 1:45:00  5:00 

   44   127 5:10:09 Steve Kikkert         Moncton           NB CA   6/33   M4549   67   32:52  1:44   25    5:10   39 2:44:40 33.2    108    2:29   60 1:45:01  5:00 

   45   233 5:12:24 Steve Reeves          Freetown          PE CA  11/40   M4044   86   33:49  1:47   37    5:28   73 2:54:26 31.3    118    2:37   29 1:36:05  4:35 

   46   268 5:12:42 Gina Spear Burrows    Grand Bay         NB CA   1/18   F5054   98   34:25  1:49   24    5:07   41 2:45:38 33.0      7    0:58   70 1:46:36  5:05 

   47   323 5:12:49 Heather Doucette      Dartmouth         NS CA   2/25   F4549    5   28:22  1:30   28    5:12   62 2:52:17 31.7      8    0:58   67 1:46:01  5:03 

   48    81 5:13:15 Gillian Fischer       Ottawa            ON CA   3/4    F2529   96   34:15  1:49    9    4:25   61 2:52:12 31.7     97    2:19   41 1:40:05  4:46 

   49     7 5:13:36 Phil Barnes           Cornwall          ON CA  12/40   M4044   31   30:13  1:36   56    5:51   53 2:50:05 32.1     85    2:11   61 1:45:18  5:01 

   50   281 5:15:08 Gerry Thauvette       Ottawa            ON CA   2/17   M5559  150   37:18  1:58   86    6:35   46 2:46:19 32.8     36    1:25   55 1:43:34  4:56 

   51    55 5:16:27 Kerry Coolen          Bridgewater       NS CA  13/40   M4044   65   32:39  1:44   91    6:42   91 2:58:44 30.5     57    1:49   31 1:36:35  4:36 

   52   192 5:16:38 Hugh Munroe           Merigomish        NS CA   7/33   M4549   71   33:06  1:45   47    5:42   56 2:50:56 31.9     32    1:21   65 1:45:35  5:02 

   53   324 5:18:51 Carolyn Peppin        Fredericton       NB CA   2/18   F3034   81   33:34  1:46   33    5:20   77 2:55:15 31.2     55    1:49   54 1:42:55  4:54 

   54   298 5:18:56 Tim Wiebe             New Maryland      NB CA   8/33   M4549   36   30:45  1:38   63    5:59   88 2:58:22 30.6    109    2:29   50 1:41:23  4:50 

   55   112 5:19:38 Christa Hynes         New Glasgow       NS CA   1/21   F4044  173   37:54  2:00   27    5:11   51 2:49:16 32.3     14    1:07   68 1:46:13  5:04 

   56   332 5:20:15 Stephane Perreault    RiviËre-du-Loup   QC CA   9/33   M4549   49   31:49  1:41  114    7:01   80 2:55:52 31.0     15    1:09   57 1:44:26  4:59 

   57   113 5:20:34 David Ibit            Orleans           ON CA  14/40   M4044  164   37:40  1:59   36    5:27   54 2:50:40 32.0     24    1:16   63 1:45:33  5:02 

   58   345 5:21:06 Michael Deutsch       Derry             NH US  15/40   M4044   80   33:34  1:46   84    6:35   55 2:50:54 31.9     82    2:09   74 1:47:56  5:09 

   59   343 5:21:48 Elizabeth Seiffert    Hanwell           NB CA   2/18   F5054   24   29:48  1:35   31    5:15   52 2:49:30 32.2     25    1:17  106 1:56:00  5:32 

   60   300 5:22:18 Geoffrey Williams     Ottawa            ON CA   3/17   M5559   76   33:20  1:46   87    6:36   58 2:51:51 31.8    101    2:22   77 1:48:11  5:10 

   61   184 5:22:52 Antoine Michaud       Lac-MÈgantic      QC CA   1/1    M0119    8   28:52  1:32   15    4:43   75 2:55:00 31.2     22    1:13   94 1:53:06  5:24 

   62   145 5:22:54 Derek Leslie          Vaudreuil         QC CA  16/40   M4044   44   31:36  1:40   44    5:40   81 2:56:36 30.9     61    1:56   72 1:47:08  5:07 

   63   143 5:23:32 Andre-Rene Leclerc    Cocagne           NB CA   2/6    M2529  180   38:48  2:03  131    7:17   66 2:53:20 31.5    125    2:40   51 1:41:29  4:50 

   64    71 5:23:50 Trevor Davies         Ottawa            ON CA  10/33   M4549  149   37:16  1:58   68    6:10   85 2:57:24 30.8    215    4:37   35 1:38:25  4:42 

   65   187 5:23:56 Colin Miller          Dartmouth         NS CA  10/13   M3034  135   36:24  1:55  128    7:15  114 3:03:08 29.8    128    2:46   23 1:34:24  4:30 

   66    95 5:24:04 Ivan Goguen           Saint John        NB CA   8/21   M5054  120   35:34  1:53   35    5:21   74 2:54:30 31.3     34    1:21   73 1:47:20  5:07 

   67   213 5:24:32 John D Parks          Saint John        NB CA   2/7    M6064  142   36:51  1:57  115    7:03   68 2:53:40 31.4     33    1:21   66 1:45:40  5:02 

   68    19 5:24:51 Kevin Besner          Bedford           NS CA  17/40   M4044   70   33:04  1:45   18    4:48   32 2:41:59 33.7     26    1:17  153 2:03:45  5:54 

   69    98 5:25:40 Jules Gorham          Vaudreuil-Dorion  QC CA   2/11   F3539   53   32:00  1:42   39    5:32  106 3:01:55 30.0     37    1:29   58 1:44:46  5:00 

   70   174 5:25:52 Kevin McDonough       Rothesay          NB CA   9/21   M5054  101   34:28  1:49   70    6:12   50 2:49:02 32.3    170    3:26   93 1:52:45  5:23 

   71   308 5:26:21 Darcy Ytterdahl       Glen Ellyn        IL US   3/25   F4549   41   31:16  1:39   79    6:25   76 2:55:00 31.2     54    1:48   90 1:51:54  5:20 

   72    76 5:26:51 Doran Donovan         Halifax           NS CA  11/33   M4549  154   37:25  1:59   62    5:56  104 3:01:26 30.1     66    1:58   42 1:40:07  4:47 

   73    22 5:26:56 Ashley Blake          Hudson            NH US   3/18   F3034  176   38:25  2:02   54    5:50   48 2:47:52 32.5     87    2:12   92 1:52:39  5:22 

   74    82 5:27:07 Joel Fournier         Quispamsis        NB CA  18/40   M4044  102   34:30  1:49  172    8:15   83 2:56:48 30.9     94    2:18   62 1:45:19  5:01 

   75   236 5:28:20 George Reid           Chelsea           QC CA   3/7    M6064   74   33:19  1:46   96    6:45  132 3:06:54 29.2    164    3:17   34 1:38:06  4:41 

   76    83 5:28:48 Julia Fournier        Ottawa            ON CA   3/18   F5054   38   30:50  1:38  127    7:14   65 2:52:58 31.6    120    2:38  104 1:55:11  5:30 

   77   251 5:28:51 Sarah Russell         Cumberland        ME US   4/25   F4549   48   31:44  1:41   49    5:44  138 3:07:40 29.1     62    1:56   52 1:41:48  4:51 

   78   342 5:29:06 Dave Clark            Summerside        PE CA  10/21   M5054  116   35:16  1:52  129    7:16   28 2:41:10 33.9    169    3:25  147 2:02:00  5:49 

   79   133 5:30:25 Brigitte L'Heureux    Fredericton       NB CA   3/11   F3539  122   35:44  1:53   46    5:42   84 2:57:14 30.8     59    1:51   83 1:49:56  5:15 

   80   197 5:30:53 Stephanie Myles       Sydney            NS CA   4/18   F3034  160   37:30  1:59   97    6:47  149 3:11:38 28.5     68    2:00   16 1:32:59  4:26 

   81   235 5:31:08 Marlon Reid           Fort Saskatchewan AB CA  19/40   M4044   47   31:44  1:41  153    7:50  111 3:02:54 29.9    161    3:09   64 1:45:34  5:02 

   82   328 5:32:17 Bruno Malenfant       RiviËre-du-Loup   QC CA   3/12   M3539  152   37:22  1:58  137    7:27  108 3:02:15 30.0     45    1:33   56 1:43:42  4:57 

   83   325 5:33:59 Richard Williams      Boston            MA US  20/40   M4044  161   37:31  1:59   76    6:18  130 3:06:16 29.3    135    2:49   48 1:41:08  4:49 

   84    40 5:34:29 Johanna Campbell      Dartmouth         NS CA   4/11   F3539    6   28:26  1:30  104    6:55  105 3:01:38 30.1    193    4:02   95 1:53:30  5:25 

   85    93 5:35:06 Caitlin Gillis        Cole Harbour      NS CA   5/18   F3034   66   32:51  1:44  178    8:28  121 3:04:24 29.6    160    3:08   69 1:46:17  5:04 

   86    15 5:35:30 Michel Bernier        Lac-Etchemin      QC CA   4/17   M5559  233   43:00  2:16  150    7:43   60 2:52:07 31.7    115    2:34   84 1:50:07  5:15 

   87    57 5:35:41 Andrew Cooper         St. Andrews       NB CA  12/33   M4549   10   29:00  1:32   81    6:29   64 2:52:38 31.6     86    2:11  166 2:05:24  5:59 

   88   172 5:35:49 Michelle McCullough   Keswick Ridge     NB CA   2/21   F4044  143   37:03  1:57   72    6:15  103 3:01:17 30.1     88    2:14   81 1:49:02  5:12 

   89   117 5:35:54 Arnie Johnston        Kinkora           PE CA  13/33   M4549   95   34:14  1:49  166    8:08   94 2:59:36 30.4    180    3:39   86 1:50:19  5:16 

   90   159 5:36:08 Roxanne MacLaurin     Bedford           NS CA   1/7    F5559   85   33:44  1:47   94    6:45   59 2:52:05 31.7    126    2:41  141 2:00:55  5:46 

   91   335 5:36:24 Tim McNaughton        Stittsville       ON CA  21/40   M4044  218   41:40  2:12  193    8:51   67 2:53:21 31.5    203    4:17   78 1:48:18  5:10 

   92    47 5:36:57 Giuseppe Cipriano     Ottawa            ON CA   4/12   M3539  169   37:47  2:00  228   10:25   57 2:51:24 31.9    159    3:07  100 1:54:16  5:27 

   93   333 5:37:12 Geoff Mroz            Ottawa            ON CA   5/12   M3539   89   33:53  1:47  202    9:13   82 2:56:42 30.9    179    3:37   97 1:53:49  5:26 

   94   179 5:38:40 Drew McNeill          Bathurst          NB CA  11/13   M3034  158   37:29  1:59  149    7:43  143 3:10:11 28.7    155    3:06   45 1:40:13  4:47 

   95   255 5:38:41 Melanie Sandwith      St. Thomas        ON CA   5/11   F3539   33   30:21  1:36  101    6:49   97 3:00:17 30.3    143    2:57  123 1:58:19  5:38 

   96   173 5:38:45 Andy McCullough       Keswick Ridge     NB CA  14/33   M4549   73   33:18  1:46   85    6:35  107 3:02:15 30.0    147    2:59   96 1:53:40  5:25 

   97   102 5:39:32 Timothy Harmon        Tantallon         NS CA  15/33   M4549  146   37:09  1:58   69    6:12   78 2:55:15 31.2     58    1:50  127 1:59:09  5:41 

   98   122 5:39:57 Wade Keller           Lawrencetown      NS CA  11/21   M5054  203   40:19  2:08   88    6:37   89 2:58:23 30.6    100    2:22   91 1:52:18  5:21 

   99   292 5:40:58 Peter Watt            Ottawa            ON CA  16/33   M4549   62   32:32  1:43  105    6:55   70 2:53:59 31.4    127    2:42  162 2:04:51  5:57 

  100    53 5:41:13 Benoit Constantin     Quebec            QC CA  22/40   M4044  172   37:53  2:00   77    6:18   95 3:00:12 30.3    123    2:39   99 1:54:14  5:27 

  101   100 5:41:57 Boris Gourichon       Hilden            NS CA  23/40   M4044   94   34:10  1:48  152    7:50   99 3:00:39 30.2     39    1:31  118 1:57:49  5:37 

  102    33 5:42:31 Kim Buck              Moncton           NB CA   5/25   F4549   32   30:18  1:36  117    7:05  112 3:02:57 29.8     75    2:06  133 2:00:07  5:44 

  103   270 5:43:10 Jeffrey St-Pierre     Fredericton       NB CA  17/33   M4549  192   39:32  2:05  136    7:26  124 3:04:33 29.6    177    3:36   76 1:48:05  5:09 

  104   152 5:43:54 Jason MacDonald       St. John's        NL CA  24/40   M4044  129   36:13  1:55  113    6:58   92 2:59:15 30.5     46    1:34  131 1:59:55  5:43 

  105   211 5:44:23 Frank Pani            Rothesay          NB CA  25/40   M4044   91   33:59  1:48  119    7:06  122 3:04:27 29.6     63    1:57  112 1:56:55  5:35 

  106   148 5:44:39 Jean-Pierre Loranger  LÈvis             QC CA   5/17   M5559   17   29:18  1:33  167    8:09   86 2:58:15 30.6     84    2:10  170 2:06:49  6:03 

  107    62 5:46:02 Richard Craven        Waterdown         ON CA  12/13   M3034  108   34:55  1:51   89    6:38   63 2:52:27 31.7    116    2:35  181 2:09:28  6:10 

  108   340 5:46:04 Andrea Hathaway       Moncton           NB CA   6/18   F3034   21   29:34  1:34   60    5:54  177 3:17:37 27.6     44    1:33   89 1:51:27  5:19 

  109   204 5:47:07 Blair Oakes           Moncton           NB CA  13/13   M3034   82   33:35  1:47   71    6:13   98 3:00:29 30.3    154    3:05  154 2:03:46  5:54 

  110   336 5:47:29 Tiffany Boire         Stiitsville       ON CA   3/21   F4044  137   36:29  1:56  120    7:07  129 3:06:04 29.3    110    2:29  105 1:55:22  5:30 

  111   293 5:47:53 Phillip Watts         Stratford         PE CA  12/21   M5054  195   39:38  2:06  203    9:14   79 2:55:17 31.1    187    3:50  132 1:59:56  5:43 

  112     3 5:47:58 Byron Allin           Ottawa            ON CA   6/12   M3539  151   37:19  1:58   99    6:48  120 3:04:06 29.7    153    3:05  109 1:56:42  5:34 

  113   123 5:48:29 Sean Kelley           Rothesay          NB CA  26/40   M4044   84   33:39  1:47   92    6:43  131 3:06:47 29.2    111    2:30  126 1:58:53  5:40 

  114     9 5:48:29 Doug Barrett          Rothesay          NB CA  18/33   M4549  121   35:42  1:53   65    6:06   96 3:00:15 30.3     76    2:06  156 2:04:23  5:56 

  115    52 5:48:37 Keith Colter          Boutiliers Point  NS CA  13/21   M5054  147   37:10  1:58  138    7:27  115 3:03:13 29.8     90    2:16  124 1:58:33  5:39 

  116   230 5:48:51 Shannon Read          Canning           NS CA   2/7    F5559   56   32:07  1:42  179    8:30  116 3:03:20 29.8    212    4:33  137 2:00:22  5:44 

  117   208 5:49:25 Philippe Outerleys    Centreville       NS CA   6/17   M5559  181   38:50  2:03   82    6:31  110 3:02:47 29.9    206    4:18  114 1:57:01  5:35 

  118   180 5:49:31 Stuart McQuarrie      Toronto           ON CA   7/12   M3539  156   37:26  1:59   98    6:47  123 3:04:27 29.6    150    3:02  119 1:57:50  5:37 

  119   109 5:49:32 Michael Hugenholtz    Saint John        NB CA  27/40   M4044  153   37:24  1:59  106    6:56  101 3:01:10 30.1    189    3:56  134 2:00:08  5:44 

  120   164 5:49:39 Nicole MacNeill       Quispamsis        NB CA   4/21   F4044  162   37:32  1:59   43    5:38  128 3:05:39 29.4     95    2:18  125 1:58:33  5:39 

  121   193 5:50:07 Clare Munroe          Merigomish        NS CA   6/25   F4549  226   42:25  2:14   74    6:18  133 3:07:07 29.2    166    3:20   88 1:51:00  5:18 

  122    99 5:50:50 Jarret Gosbee         Sydney            NS CA   3/6    M2529  136   36:26  1:56  142    7:29   93 2:59:32 30.4    136    2:49  158 2:04:36  5:56 

  123   217 5:51:31 Sarah Penney          Baddeck           NS CA   7/18   F3034   45   31:41  1:41  126    7:13  139 3:08:04 29.0     67    1:59  150 2:02:37  5:51 

  124   153 5:51:33 Elana MacDougall      Trois-Rivieres    QC CA   7/25   F4549  104   34:36  1:50  102    6:52  109 3:02:31 29.9    144    2:57  159 2:04:39  5:57 

  125    54 5:51:46 Rhonda Cook           Brazil Lake       NS CA   4/18   F5054  112   35:05  1:51  132    7:19  150 3:11:48 28.5    105    2:28  103 1:55:09  5:29 

  126   222 5:52:42 Normand Poulin        Quebec            QC CA  14/21   M5054  184   39:00  2:04  236   10:44  134 3:07:13 29.2    240    5:39   85 1:50:08  5:15 

  127   167 5:52:48 Jean-Luc Martin       Dieppe            NB CA   3/3    M2024    1   25:02  1:19   75    6:18  187 3:20:31 27.2    152    3:05  121 1:57:54  5:37 

  128   338 5:53:08 Eric Daye             Montreal          QC CA   8/12   M3539  138   36:31  1:56  250   11:53   87 2:58:18 30.6    251    6:10  136 2:00:18  5:44 

  129    11 5:54:06 Glenn Basso           New Waterford     NS CA  15/21   M5054  212   40:46  2:09  177    8:26  169 3:16:37 27.8     51    1:41   71 1:46:39  5:05 

  130    18 5:54:27 Dolores Berube        Charlo            NB CA   5/18   F5054  100   34:28  1:49  176    8:24  156 3:12:35 28.4    139    2:52  107 1:56:09  5:32 

  131   106 5:55:14 Russell Hopson        Halifax           NS CA   9/12   M3539  127   36:09  1:55  198    9:05  144 3:10:13 28.7    141    2:53  111 1:56:55  5:35 

  132   304 5:55:31 Dave Yaeger           Ottawa            ON CA   4/7    M6064  190   39:27  2:05  188    8:44   90 2:58:25 30.6    192    4:00  163 2:04:56  5:57 

  133   329 5:55:50 Billy Lapointe        RiviËre-du-Loup   QC CA  28/40   M4044  236   43:30  2:18  116    7:05  126 3:05:00 29.5    142    2:55  116 1:57:22  5:36 

  134    70 5:55:52 Kim Davidge           Burlington        ON CA   5/21   F4044  134   36:20  1:55  123    7:10  127 3:05:18 29.5     91    2:16  161 2:04:50  5:57 

  135   331 5:56:13 Danielle Amyot        RiviËre-du-Loup   QC CA   6/21   F4044  178   38:39  2:02   67    6:09  186 3:19:55 27.3     65    1:58   82 1:49:34  5:14 

  136   119 5:57:22 Justin Kahale         Navan             ON CA  10/12   M3539  114   35:12  1:52  234   10:42  102 3:01:14 30.1    247    6:03  155 2:04:13  5:55 

  137   254 5:57:45 John David Salvatore  Upper Sackville   NS CA   5/7    M6064  242   43:55  2:19  201    9:09   69 2:53:48 31.4    228    4:56  167 2:05:59  6:00 

  138   144 5:57:52 Eric Lemay            Bouctouche        NB CA  29/40   M4044   57   32:09  1:42  168    8:10   71 2:54:00 31.4    129    2:47  220 2:20:47  6:43 

  139    46 5:58:48 Allison Christie      Ottawa            ON CA   7/21   F4044  117   35:24  1:52  146    7:39  175 3:17:27 27.7    211    4:29   98 1:53:51  5:26 

  140   189 5:59:44 Mike Morrison         Sydney Forks      NS CA  30/40   M4044   40   31:10  1:39  180    8:30  137 3:07:31 29.1     49    1:37  183 2:10:58  6:15 

  141   232 6:00:04 Shawna Rees           Elmsdale          NS CA   6/11   F3539  186   39:08  2:04  122    7:09  141 3:08:46 28.9    171    3:26  145 2:01:37  5:48 

  142   205 6:00:22 Melissa Ossanna       Bar Harbor        ME US   8/25   F4549   78   33:29  1:46  243   11:12  172 3:17:10 27.7    196    4:04  102 1:54:28  5:28 

  143   234 6:01:29 Nina Reid             Fort Saskatchewan AB CA   9/25   F4549  163   37:38  1:59  162    8:00  163 3:15:01 28.0    175    3:32  115 1:57:21  5:36 

  144    58 6:01:43 Andrew Corbin         Allison           NB CA  11/12   M3539  170   37:48  2:00  151    7:50  125 3:04:41 29.6    173    3:29  174 2:07:57  6:06 

  145   262 6:01:57 Kevin Sears           Quispamsis        NB CA  16/21   M5054  217   41:33  2:12  175    8:23  142 3:09:29 28.8    216    4:39  122 1:57:55  5:37 

  146   226 6:02:05 Tracey Price-Emerson  Rothesay          NB CA   8/21   F4044  126   36:07  1:55   58    5:53  160 3:13:53 28.2     52    1:42  157 2:04:31  5:56 

  147   107 6:03:25 Brad Horncastle       Fredericton       NB CA  19/33   M4549   54   32:02  1:42   61    5:55  189 3:21:27 27.1     93    2:17  146 2:01:46  5:48 

  148   330 6:03:37 Caroline Mailloux     RiviËre-du-Loup   QC CA  10/25   F4549  210   40:35  2:09   93    6:44  199 3:26:23 26.5     47    1:36   79 1:48:21  5:10 

  149    79 6:04:13 Janice Faessler       Kennebunkport     ME US  11/25   F4549  198   39:51  2:06  156    7:51  165 3:15:28 27.9    225    4:54  108 1:56:10  5:32 

  150   169 6:04:39 William McAnirlin III Newport           ME US  31/40   M4044  179   38:47  2:03  182    8:37  119 3:04:03 29.7    207    4:21  180 2:08:53  6:09 

  151    66 6:04:43 Todd Crowdis          Sydney            NS CA   7/17   M5559  229   42:38  2:15  161    7:59  148 3:11:29 28.5     60    1:52  139 2:00:47  5:46 

  152   237 6:04:56 Shawn Reid            Millville         NB CA  20/33   M4549  140   36:45  1:57  214    9:29  170 3:16:37 27.8     29    1:18  140 2:00:50  5:46 

  153     1 6:05:06 Erin Akitt            Dartmouth         NS CA   8/18   F3034   64   32:39  1:44  143    7:34  100 3:00:56 30.2    148    3:01  221 2:20:58  6:43 

  154   287 6:05:36 Andrew Van Wiechen    Glen Marten       PE CA   8/17   M5559  196   39:42  2:06  125    7:12  113 3:03:00 29.8     96    2:19  188 2:13:25  6:22 

  155    77 6:05:45 Marie-France Dufour   Montreal          QC CA   6/18   F5054  166   37:43  2:00  208    9:19  180 3:18:06 27.6    138    2:51  117 1:57:48  5:37 

  156    87 6:05:47 Marie-Sophie Gauthier Rimouski          QC CA  12/25   F4549  187   39:11  2:04  109    6:57  184 3:19:34 27.4    158    3:07  113 1:57:00  5:35 

  157     8 6:06:31 Guylaine Barnes       Cornwall          ON CA  13/25   F4549  168   37:45  2:00  155    7:51  173 3:17:15 27.7    157    3:07  138 2:00:36  5:45 

  158   238 6:06:41 Leah Reinberger       Gatineau          QC CA   9/21   F4044  239   43:36  2:18  165    8:07  147 3:11:22 28.5    112    2:31  143 2:01:07  5:47 

  159    12 6:06:55 Treena Bellamy        Stratford         PE CA  14/25   F4549  215   41:19  2:11  225   10:11  140 3:08:38 28.9    214    4:36  149 2:02:11  5:50 

  160   135 6:07:20 Kurt Laird            Cardigan          PE CA  21/33   M4549  132   36:18  1:55  163    8:02  168 3:16:22 27.8    156    3:06  151 2:03:34  5:54 

  161   246 6:07:40 Lynne Ross            Ottawa            ON CA   7/18   F5054  211   40:41  2:09  157    7:52  167 3:15:43 27.9     98    2:20  142 2:01:06  5:46 

  162    13 6:08:12 Kirk Bellamy          Stratford         PE CA  22/33   M4549  249   45:02  2:23  145    7:37  136 3:07:28 29.1    151    3:02  164 2:05:04  5:58 

  163    29 6:08:29 Ann Marie Brady       Ottawa            ON CA   3/7    F5559  141   36:50  1:57  221    9:53  171 3:17:04 27.7    234    5:15  129 1:59:28  5:42 

  164    28 6:09:08 David Bown            Sydney            NS CA   9/17   M5559  167   37:45  2:00  189    8:45  158 3:13:11 28.3    202    4:16  165 2:05:14  5:58 

  165   128 6:10:33 Michele King          Moncton           NB CA   8/18   F5054  260   49:24  2:36  139    7:28  159 3:13:45 28.2     77    2:06  120 1:57:52  5:37 

  166    67 6:10:41 Helen Curran          Halifax           NS CA   7/11   F3539  241   43:40  2:18  183    8:38  185 3:19:36 27.4     78    2:08  110 1:56:42  5:34 

  167   243 6:10:54 Brad Rideout          Fredericton       NB CA  23/33   M4549   75   33:20  1:46   55    5:50  118 3:03:55 29.7    227    4:56  225 2:22:55  6:49 

  168   138 6:11:38 Denise Landry-Nadeau  Edmundston        NB CA   4/7    F5559  188   39:14  2:04  108    6:57  117 3:03:47 29.7    130    2:47  217 2:18:55  6:37 

  169   322 6:11:44 Sara Meyers           Kentville         NS CA   9/18   F3034   83   33:36  1:47  110    6:57  205 3:28:11 26.2    168    3:22  130 1:59:41  5:42 

  170   125 6:12:02 Monika Kern           Chelsea           QC CA   9/18   F5054  139   36:43  1:56  260   13:02  202 3:27:39 26.3    204    4:17   87 1:50:23  5:16 

  171   195 6:13:22 Bruna Musa            Sao Paulo            BR  10/18   F3034   72   33:09  1:45  210    9:22  155 3:12:14 28.4    222    4:50  190 2:13:49  6:23 

  172    56 6:14:09 Lara Cooper           St Andrews        NB CA  15/25   F4549   60   32:23  1:43  103    6:55  174 3:17:23 27.7    149    3:02  197 2:14:28  6:25 

  173   306 6:14:22 Dave Young            Quispamsis        NB CA  17/21   M5054   42   31:20  1:39  134    7:24  153 3:11:53 28.5    261    7:55  204 2:15:52  6:29 

  174   321 6:14:40 Brendan Meyers        Kentville         NS CA   4/6    M2529  128   36:10  1:55  100    6:49  183 3:18:35 27.5    205    4:18  179 2:08:50  6:09 

  175   289 6:15:34 Madeleine Von Arx     Kentville         NS CA  10/21   F4044  222   41:56  2:13  140    7:28  192 3:22:33 27.0    167    3:22  135 2:00:17  5:44 

  176   290 6:16:17 Kieth Walsh           Stratford         ON CA  18/21   M5054  124   35:49  1:54   95    6:45  176 3:17:30 27.6     79    2:08  194 2:14:08  6:24 

  177   196 6:16:18 Fernando Musa         Sao Paulo            BR  24/33   M4549   92   33:59  1:48  248   11:33  154 3:12:13 28.4    223    4:51  189 2:13:44  6:23 

  178    85 6:16:28 Alison Fredericks     Coldbrook         NS CA  16/25   F4549  175   38:25  2:02  219    9:48  190 3:21:28 27.1    163    3:14  152 2:03:35  5:54 

  179    91 6:17:52 Andree Giguere        Laval             QC CA  17/25   F4549  194   39:37  2:06  184    8:39  213 3:30:49 25.9    209    4:26  101 1:54:23  5:27 

  180   181 6:18:48 Melanie Meguerian     Newmarket         ON CA  11/21   F4044   63   32:36  1:43  197    9:04  203 3:27:45 26.3     92    2:17  172 2:07:08  6:04 

  181   242 6:19:31 Mike Richard          Dieppe            NB CA  25/33   M4549  240   43:38  2:18  147    7:41  161 3:14:52 28.0     74    2:05  185 2:11:18  6:16 

  182   115 6:19:47 George Jessen         Sydney            NS CA   6/7    M6064  208   40:32  2:08  217    9:38  182 3:18:23 27.5    181    3:40  173 2:07:35  6:05 

  183   194 6:20:40 Catherine-Anne Murray Halifax           NS CA  11/18   F3034   97   34:16  1:49  158    7:53  201 3:27:05 26.4    232    5:10  168 2:06:19  6:01 

  184   285 6:21:40 Bonnie Underwood      Woodstock         VT US  12/21   F4044  189   39:16  2:04  107    6:56  207 3:28:20 26.2     99    2:20  160 2:04:48  5:57 

  185    84 6:21:43 Jo Fraser             Beaver Bank       NS CA  18/25   F4549  207   40:31  2:08  231   10:38  196 3:24:41 26.7    255    6:36  128 1:59:18  5:41 

  186   265 6:21:56 Brent Smyth           Orleans           ON CA  26/33   M4549  204   40:21  2:08   90    6:39  151 3:11:50 28.5    186    3:50  218 2:19:18  6:38 

  187   229 6:23:02 Isabelle Ratelle      Montreal          QC CA  13/21   F4044  111   35:04  1:51  170    8:12  195 3:24:08 26.7    178    3:37  186 2:12:03  6:18 

  188   341 6:23:11 Kurt Gumushel         St. Andrews       NB CA  27/33   M4549  220   41:47  2:12  154    7:51  157 3:12:51 28.3    131    2:47  213 2:17:58  6:35 

  189   210 6:24:06 Carl Ozkaynak         Quispamsis        NB CA  32/40   M4044  245   44:33  2:21   83    6:34  145 3:10:47 28.6    119    2:38  219 2:19:37  6:39 

  190    25 6:24:16 Lucie Boudreau        Gatineau          QC CA   1/5    F6064  202   40:03  2:07  212    9:27  191 3:21:36 27.1     83    2:10  184 2:11:02  6:15 

  191   248 6:24:20 Luc Roussel           Montreal          QC CA  28/33   M4549  185   39:03  2:04  254   12:21  152 3:11:52 28.5    250    6:08  198 2:14:58  6:26 

  192   277 6:25:47 Mario Tardif          Asbestos          QC CA  10/17   M5559  223   42:05  2:13  121    7:08  179 3:18:02 27.6    122    2:38  205 2:15:55  6:29 

  193    69 6:27:20 Piers Davidge         Burlington        ON CA  29/33   M4549   79   33:30  1:46  181    8:31  135 3:07:23 29.1    121    2:38  243 2:35:20  7:24 

  194    14 6:29:24 Dave Bergeron         Ottawa            ON CA  33/40   M4044  244   44:12  2:20  229   10:25  162 3:14:56 28.0    238    5:34  195 2:14:19  6:24 

  195   202 6:29:37 Marie-Christine Noël  Dieppe            NB CA   1/2    F2024   61   32:27  1:43  187    8:43  217 3:32:08 25.7    165    3:19  187 2:13:02  6:21 

  196    31 6:32:26 Melanie Brochu        Quispamsis        NB CA  14/21   F4044  165   37:42  2:00  215    9:30  198 3:26:00 26.5    199    4:09  199 2:15:07  6:27 

  197   218 6:32:34 David Perry           Summerside        PE CA  19/21   M5054  107   34:47  1:50  192    8:50  211 3:30:33 25.9    194    4:03  196 2:14:22  6:24 

  198    38 6:32:41 Jean P Cadieux        Shediac Cape      NB CA  11/17   M5559  157   37:28  1:59  264   13:58  221 3:34:22 25.5    237    5:28  144 2:01:27  5:47 

  199   158 6:33:30 Kathryn MacKinnon     Salt Springs      NS CA  10/18   F5054  200   39:54  2:06  226   10:17  197 3:25:04 26.6    132    2:47  202 2:15:29  6:28 

  200   221 6:33:38 Christine Piche       Orleans           ON CA  19/25   F4549  238   43:35  2:18  191    8:47  194 3:23:13 26.9    198    4:05  191 2:13:59  6:23 

  201    42 6:33:41 Nicole Carpani        Oakville          ON CA  15/21   F4044  159   37:29  1:59  230   10:37  181 3:18:19 27.5    146    2:59  227 2:24:19  6:53 

  202    24 6:35:04 Kate Borowec          Ottawa            ON CA  12/18   F3034  221   41:53  2:13  218    9:46  188 3:20:48 27.2    190    3:57  215 2:18:42  6:37 

  203   139 6:35:18 Alexandra Lauzier     LÈvis             QC CA  11/18   F5054   93   34:00  1:48  144    7:36  164 3:15:26 27.9    231    5:09  241 2:33:08  7:18 

  204   150 6:36:52 Kerrie Luck           Quispamsis        NB CA  16/21   F4044  130   36:15  1:55  135    7:25  210 3:30:25 25.9    248    6:06  208 2:16:43  6:31 

  205   241 6:37:00 Daniel Richard        Dieppe            NB CA  34/40   M4044  246   44:37  2:21  206    9:17  146 3:10:57 28.6    226    4:55  234 2:27:15  7:01 

  206   129 6:38:56 Karen Kircher         Penticton         BC CA  17/21   F4044  103   34:31  1:49  148    7:41  216 3:31:35 25.8     80    2:08  226 2:23:03  6:49 

  207    44 6:39:22 Stella Chen           Wolfville         NS CA  13/18   F3034   43   31:33  1:40  171    8:15  250 3:49:14 23.8     70    2:02  177 2:08:20  6:07 

  208   140 6:40:13 Hope Lavin-Macdougall Quispamsis        NB CA  12/18   F5054  145   37:08  1:58  174    8:17  204 3:28:03 26.2    224    4:54  223 2:21:53  6:46 

  209   110 6:40:20 Jeff Hunt             Bangor            ME US  12/17   M5559  231   42:43  2:15  249   11:34  220 3:33:01 25.6    217    4:39  178 2:08:25  6:07 

  210   303 6:41:56 Victor Wright         Fenwick           NS CA  35/40   M4044  228   42:34  2:15  241   10:57  225 3:35:41 25.3    220    4:44  176 2:08:01  6:06 

  211   168 6:41:56 Jamie Matthews        Amherst           NS CA  36/40   M4044  227   42:34  2:15  239   10:56  226 3:35:46 25.3    218    4:40  175 2:08:01  6:06 

  212   302 6:42:07 Dianne Woodworth      Fall River        NS CA  20/25   F4549  250   45:17  2:23  185    8:41  208 3:28:35 26.2    172    3:27  206 2:16:09  6:29 

  213    41 6:43:10 Evelyne Cardinal      Ottawa            ON CA  14/18   F3034  133   36:18  1:55  124    7:12  253 3:50:14 23.7    117    2:37  171 2:06:51  6:03 

  214   283 6:43:42 Erin Toole            Grand Bay-Westfie NB CA  18/21   F4044  148   37:11  1:58  160    7:58  235 3:39:16 24.9     81    2:09  210 2:17:11  6:32 

  215   228 6:44:42 Pamela Queen          Quispamsis        NB CA  19/21   F4044  225   42:24  2:14  173    8:15  228 3:36:30 25.2     89    2:16  201 2:15:19  6:27 

  216    30 6:46:09 Michelle Brenton      Hampton           NB CA  13/18   F5054  209   40:33  2:08  207    9:17  229 3:37:19 25.1    185    3:46  200 2:15:16  6:27 

  217   259 6:46:23 Doug Scott            Quispamsis        NB CA  13/17   M5559   99   34:27  1:49  196    8:57  166 3:15:40 27.9    208    4:23  250 2:42:57  7:46 

  218   240 6:47:12 Debbie Reinsborough   Riverview         NB CA   2/5    F6064  256   47:26  2:30  256   12:49  224 3:34:53 25.4    241    5:39  169 2:06:28  6:02 

  219     4 6:48:29 Meaghan Arzberger     Arundel           ME US  15/18   F3034  191   39:29  2:05  164    8:03  236 3:39:35 24.9    213    4:34  209 2:16:49  6:31 

  220    16 6:49:35 Kathy Berry-Cox       Grandbay-Westfiel NB CA  21/25   F4549  174   38:06  2:01  159    7:56  239 3:40:56 24.7    210    4:26  214 2:18:13  6:35 

  221    51 6:49:46 Tim Coker             Nashua            NH US  12/12   M3539  155   37:25  1:59  259   12:59  214 3:30:58 25.9    239    5:36  224 2:22:49  6:49 

  222    50 6:50:40 Nancy Coakley         Kingston          NS CA   5/7    F5559  257   48:48  2:35  235   10:42  222 3:34:23 25.5    245    5:52  182 2:10:57  6:15 

  223   147 6:52:42 Rob Long              Team Bean - Saint NB CA  20/21   M5054  255   46:17  2:27  233   10:40  219 3:32:54 25.6    253    6:23  207 2:16:30  6:30 

  224   288 6:55:08 Janet Vaughan         Rothesay          NB CA  14/18   F5054  213   40:55  2:10  195    8:56  248 3:46:49 24.1    140    2:52  203 2:15:38  6:28 

  225   327 6:55:24 Colleen Cuthbert      Calgary           AB CA  22/25   F4549  214   41:06  2:10  255   12:48  241 3:41:49 24.6    242    5:39  192 2:14:04  6:24 

  226    88 6:55:40 Shelley Gautreau      Rothesay          NB CA  20/21   F4044  193   39:35  2:05  133    7:21  223 3:34:27 25.5     64    1:58  238 2:32:21  7:16 

  227   175 6:55:43 Stephanie McIntosh La Grand Bay         NB CA  23/25   F4549  105   34:41  1:50  205    9:15  218 3:32:37 25.7    137    2:49  244 2:36:23  7:27 

  228    39 6:55:58 Chris Camburn         Philadelphia      PA US  37/40   M4044  206   40:28  2:08  227   10:24  227 3:36:05 25.3    200    4:10  229 2:24:55  6:54 

  229   272 6:59:12 Rick Stephen          Saint John        NB CA   7/7    M6064  125   35:55  1:54  199    9:05  206 3:28:11 26.2    235    5:17  249 2:40:46  7:40 

  230   114 6:59:55 Tom Jeleniewski       Hazlet            NJ US  38/40   M4044  261   50:24  2:40  216    9:37  255 3:53:46 23.4    197    4:05  148 2:02:06  5:49 

  231   326 7:00:20 Darren Swinemer       Grand-Barachois   NB CA  30/33   M4549  219   41:42  2:12  220    9:50  178 3:17:52 27.6    221    4:48  254 2:46:10  7:55 

  232    73 7:00:56 Michael Dixon         Ottawa            ON CA   1/2    M6569  235   43:14  2:17  247   11:27  240 3:41:38 24.6    246    5:54  216 2:18:45  6:37 

  233   269 7:01:34 Sonya Spencer         Albert Bridge     NS CA   8/11   F3539  205   40:22  2:08  232   10:39  238 3:40:50 24.7    182    3:43  231 2:26:02  6:58 

  234   263 7:01:38 Michelle Sherman      Springvale        ME US  15/18   F5054  266   54:29  2:53  263   13:54  212 3:30:44 25.9    229    4:57  211 2:17:36  6:34 

  235    78 7:04:20 Andrea English        Ottawa            ON CA   9/11   F3539  254   45:53  2:25  209    9:21  246 3:44:55 24.3    252    6:20  212 2:17:52  6:34 

  236   178 7:04:52 Patrick McMullon      Rothesay          NB CA  31/33   M4549  234   43:11  2:17  253   12:18  233 3:38:22 25.0    201    4:14  233 2:26:49  7:00 

  237   278 7:05:08 Tommy Tardif          Port-Cartier      QC CA   5/6    M2529  199   39:53  2:06  262   13:42  243 3:43:30 24.4    176    3:35  228 2:24:30  6:53 

  238   273 7:06:11 Karen Stephens        Keswick Ridge     NB CA   6/7    F5559  216   41:28  2:11  211    9:26  245 3:44:44 24.3    236    5:19  230 2:25:17  6:56 

  239    64 7:06:58 Cheryl Cromwell       Lebanon           ME US   2/2    F2024  253   45:40  2:25  251   11:56  242 3:41:57 24.6    243    5:40  222 2:21:47  6:46 

  240   215 7:07:12 Tomas Peiser          Rothesay          NB CA  14/17   M5559  131   36:16  1:55  223   10:01  230 3:37:50 25.1    134    2:48  247 2:40:18  7:38 

  241   349 7:07:26 Carlton Moore         Dartmouth         NS CA  15/17   M5559  182   38:54  2:03  224   10:07  193 3:23:05 26.9    249    6:07  258 2:49:15  8:04 

  242   200 7:09:09 Ahmed Nassrat         Halifax           NS CA   6/6    M2529  243   44:09  2:20  141    7:29  200 3:27:03 26.4    184    3:46  255 2:46:44  7:57 

  243   352 7:10:06 Daphne Millay         Portland          ME US  24/25   F4549  263   51:21  2:43  267   17:24  237 3:40:37 24.7    256    6:39  193 2:14:07  6:24 

  244   111 7:14:12 Doug Hunter           Ottawa            ON CA   2/2    M6569  119   35:30  1:53  186    8:42  249 3:46:53 24.1    124    2:39  248 2:40:30  7:39 

  245   209 7:17:22 Tanya Owens           Moncton           NB CA  10/11   F3539  237   43:31  2:18  204    9:14  215 3:31:30 25.8    188    3:52  259 2:49:16  8:04 

  246    96 7:19:20 Janice Goguen         Moncton           NB CA   3/5    F6064  259   49:09  2:36  252   12:06  244 3:44:40 24.3    233    5:11  235 2:28:15  7:04 

  247    10 7:20:25 Jean Barry            Moncton           NB CA   4/5    F6064  262   51:03  2:42  258   12:58  234 3:38:40 25.0    244    5:43  237 2:32:03  7:15 

  248   131 7:20:27 Sara Krause           Bow               NH US  11/11   F3539  251   45:25  2:24  169    8:11  231 3:38:00 25.0    133    2:48  253 2:46:05  7:55 

  249   261 7:20:29 Beth Sears            Quispamsis        NB CA   7/7    F5559  258   48:54  2:35  261   13:17  232 3:38:22 25.0    258    7:24  240 2:32:34  7:16 

  250    61 7:22:40 Melissa Craven        Waterdown         ON CA  16/18   F3034  171   37:51  2:00  244   11:16  254 3:50:46 23.7    191    3:58  246 2:38:51  7:34 

  251   260 7:25:12 Nicky Scott           Hampton           NB CA  25/25   F4549  183   38:59  2:04  194    8:52  251 3:49:26 23.8    102    2:24  252 2:45:33  7:53 

  252   282 7:26:24 Scott Thomas          Rothesay          NB CA  32/33   M4549  232   42:49  2:16  190    8:47  209 3:30:22 26.0    145    2:58  261 3:01:31  8:39 

  253   118 7:31:43 Eric Johnston         Port Williams     NS CA  16/17   M5559  230   42:42  2:15  242   10:58  258 3:59:07 22.8    254    6:30  239 2:32:28  7:16 

  254   142 7:34:35 Claire Leblanc        Moncton           NB CA   5/5    F6064  264   52:26  2:46  246   11:26  257 3:58:13 22.9    183    3:45  236 2:28:47  7:06 

  255    26 7:34:47 Carolyn Boudreau      Bradeford         ON CA  16/18   F5054  144   37:05  1:58  213    9:28  260 4:02:32 22.5    104    2:24  251 2:43:20  7:47 

  256   212 7:38:09 Carrie Parker         Chamcook          NB CA  17/18   F5054  247   44:49  2:22  245   11:21  261 4:04:48 22.3    162    3:13  242 2:33:59  7:20 

  257   274 7:43:51 David Sweetman        Colorado Springs  CO US  21/21   M5054  267   54:55  2:54  257   12:52  262 4:05:03 22.3    219    4:41  232 2:26:22  6:59 

  258    75 7:52:19 Elizabeth Donnelly-Ne Grand Bay-Westfie NB CA   1/1    F6569  197   39:49  2:06  240   10:57  263 4:05:59 22.2    259    7:26  256 2:48:10  8:01 

  259    27 7:52:30 Elaine Boulanger      Saint John        NB CA  21/21   F4044  248   44:57  2:22  237   10:48  259 4:00:59 22.7    257    7:18  257 2:48:30  8:02 

  260    49 7:59:04 Rachel Clewley        Ottawa            ON CA  17/18   F3034   88   33:50  1:47  222    9:54  252 3:50:05 23.7    263    9:06  262 3:16:11  9:21 

  261   160 8:13:19 Brenda MacLennan      Halifax           NS CA   4/4    F2529  265   54:23  2:52  266   15:32  264 4:18:08 21.2    262    8:02  245 2:37:15  7:30 

  262   253 8:22:53 Gillian Salmon        Fredericton       NB CA  18/18   F3034  224   42:12  2:14  238   10:54  265 4:33:55 19.9    230    5:02  260 2:50:52  8:09 

  263   275 8:23:03 Richard Sweetman      Scarborough       ON CA  17/17   M5559  252   45:30  2:24  265   14:48  256 3:56:02 23.1    260    7:29  263 3:19:15  9:30 

  264   279         Arend Teraa           York              PE CA  39/40   M4044    2   25:44  1:22   45    5:41   31 2:41:42 33.8                                   

  265   161         Sue MacLeod           Schomberg         ON CA  18/18   F5054  177   38:30  2:02  200    9:06  247 3:45:33 24.2                                   

  266   266         Gary Snow             Grantham          NH US  40/40   M4044   12   29:03  1:32   29    5:13                                                     

  267   201         Serge Noel            Dieppe            NB CA  33/33   M4549  110   35:00  1:51   23    5:03